createdAt,value
2019-05-21T00:01:25.263Z,33.73
2019-05-21T00:04:34.354Z,31.30
2019-05-21T00:07:23.398Z,31.97
2019-05-21T00:09:53.126Z,33.13
2019-05-21T00:12:34.328Z,31.67
2019-05-21T00:15:15.574Z,29.93
2019-05-21T00:17:56.699Z,27.47
2019-05-21T00:20:37.704Z,28.60
2019-05-21T00:23:19.281Z,29.67
2019-05-21T00:26:00.750Z,29.83
2019-05-21T00:28:41.997Z,28.87
2019-05-21T00:31:23.623Z,30.50
2019-05-21T00:34:05.241Z,28.90
2019-05-21T00:36:46.226Z,28.00
2019-05-21T00:39:27.481Z,28.60
2019-05-21T00:42:08.910Z,30.20
2019-05-21T00:45:18.555Z,29.93
2019-05-21T00:51:06.642Z,30.27
2019-05-21T00:53:36.383Z,30.17
2019-05-21T00:56:06.279Z,30.07
2019-05-21T00:58:55.633Z,29.17
2019-05-21T01:01:44.618Z,29.60
2019-05-21T01:10:41.891Z,27.50
2019-05-21T01:13:22.965Z,28.40
2019-05-21T01:16:04.419Z,30.10
2019-05-21T01:18:45.933Z,29.23
2019-05-21T01:24:16.450Z,29.33
2019-05-21T01:33:14.090Z,30.07
2019-05-21T01:41:52.632Z,28.80
2019-05-21T01:45:00.447Z,29.00
2019-05-21T01:47:49.089Z,27.57
2019-05-21T01:53:38.583Z,27.70
2019-05-21T01:56:08.413Z,30.00
2019-05-21T02:07:56.030Z,27.00
2019-05-21T02:10:25.700Z,29.53
2019-05-21T02:13:14.491Z,28.50
2019-05-21T02:15:55.590Z,26.77
2019-05-21T02:18:36.461Z,27.13
2019-05-21T02:21:18.075Z,28.70
2019-05-21T02:23:59.757Z,25.53
2019-05-21T02:26:41.457Z,22.07
2019-05-21T02:29:11.554Z,23.33
2019-05-21T02:37:51.479Z,23.90
2019-05-21T02:43:23.254Z,21.47
2019-05-21T02:46:13.363Z,19.37
2019-05-21T02:52:01.428Z,16.97
2019-05-21T02:54:50.205Z,16.23
2019-05-21T02:57:40.832Z,15.93
2019-05-21T03:00:48.453Z,15.97
2019-05-21T03:03:37.099Z,15.77
2019-05-21T03:06:25.846Z,15.70
2019-05-21T03:08:55.474Z,16.87
2019-05-21T03:14:36.128Z,19.67
2019-05-21T03:17:17.849Z,23.10
2019-05-21T03:19:59.205Z,23.30
2019-05-21T03:22:28.947Z,24.87
2019-05-21T03:25:17.804Z,26.70
2019-05-21T03:27:47.632Z,25.80
2019-05-21T03:30:36.548Z,27.10
2019-05-21T03:33:25.251Z,28.73
2019-05-21T03:36:31.859Z,28.90
2019-05-21T03:41:46.775Z,28.27
2019-05-21T03:44:36.988Z,30.63
2019-05-21T03:47:25.907Z,29.90
2019-05-21T03:50:14.786Z,30.57
2019-05-21T03:58:33.813Z,27.90
2019-05-21T04:01:03.731Z,28.60
2019-05-21T04:03:33.637Z,29.27
2019-05-21T04:06:03.190Z,30.27
2019-05-21T04:08:33.202Z,28.57
2019-05-21T04:11:02.904Z,29.37
2019-05-21T04:13:32.533Z,29.00
2019-05-21T04:16:39.698Z,25.20
2019-05-21T04:19:13.404Z,21.77
2019-05-21T04:21:43.219Z,22.80
2019-05-21T04:24:12.802Z,20.77
2019-05-21T04:26:42.428Z,20.03
2019-05-21T04:29:12.202Z,20.83
2019-05-21T04:31:42.122Z,19.87
2019-05-21T04:34:11.724Z,20.97
2019-05-21T04:36:41.454Z,18.63
2019-05-21T04:39:11.101Z,20.93
2019-05-21T04:41:40.693Z,19.43
2019-05-21T04:44:10.448Z,19.20
2019-05-21T04:46:41.354Z,21.33
2019-05-21T04:49:11.012Z,19.90
2019-05-21T04:51:40.750Z,21.83
2019-05-21T04:54:10.407Z,21.70
2019-05-21T04:56:40.001Z,20.30
2019-05-21T04:59:09.958Z,20.07
2019-05-21T05:01:39.553Z,20.27
2019-05-21T05:04:09.550Z,21.43
2019-05-21T05:06:39.294Z,20.87
2019-05-21T05:09:08.913Z,21.10
2019-05-21T05:11:38.511Z,20.07
2019-05-21T05:14:08.250Z,20.73
2019-05-21T05:16:37.926Z,20.63
2019-05-21T05:19:07.861Z,21.43
2019-05-21T05:21:37.847Z,20.43
2019-05-21T05:24:07.582Z,20.27
2019-05-21T05:26:37.294Z,19.23
2019-05-21T05:29:06.956Z,19.10
2019-05-21T05:31:36.914Z,19.53
2019-05-21T05:34:06.473Z,20.80
2019-05-21T05:36:36.228Z,19.33
2019-05-21T05:39:07.691Z,18.63
2019-05-21T05:41:37.347Z,19.80
2019-05-21T05:44:07.206Z,20.20
2019-05-21T05:46:36.829Z,19.47
2019-05-21T05:49:12.485Z,19.90
2019-05-21T05:51:42.507Z,20.40
2019-05-21T05:54:12.163Z,19.63
2019-05-21T05:56:41.919Z,19.17
2019-05-21T05:59:14.253Z,19.63
2019-05-21T06:01:43.165Z,19.27
2019-05-21T06:04:12.922Z,19.20
2019-05-21T06:06:42.563Z,19.20
2019-05-21T06:09:12.251Z,19.63
2019-05-21T06:11:42.295Z,19.43
2019-05-21T06:14:12.197Z,18.60
2019-05-21T06:16:41.867Z,18.37
2019-05-21T06:19:11.948Z,16.87
2019-05-21T06:21:41.573Z,17.43
2019-05-21T06:24:13.499Z,16.97
2019-05-21T06:26:42.681Z,16.10
2019-05-21T06:29:12.306Z,17.63
2019-05-21T06:31:42.266Z,18.20
2019-05-21T06:34:11.969Z,19.77
2019-05-21T06:36:42.002Z,19.20
2019-05-21T06:39:11.831Z,18.63
2019-05-21T06:44:23.434Z,19.23
2019-05-21T06:49:52.190Z,20.27
2019-05-21T06:52:21.981Z,19.60
2019-05-21T06:54:52.013Z,18.87
2019-05-21T06:57:21.655Z,19.90
2019-05-21T06:59:51.341Z,17.50
2019-05-21T07:02:40.072Z,18.23
2019-05-21T07:05:09.925Z,19.30
2019-05-21T07:07:40.918Z,19.60
2019-05-21T07:10:29.695Z,17.93
2019-05-21T07:12:59.643Z,19.23
2019-05-21T07:15:29.286Z,19.23
2019-05-21T07:17:58.954Z,18.70
2019-05-21T07:20:40.302Z,19.20
2019-05-21T07:23:22.005Z,19.03
2019-05-21T07:26:03.459Z,19.77
2019-05-21T07:28:33.167Z,17.93
2019-05-21T07:31:02.831Z,17.53
2019-05-21T07:33:32.861Z,19.93
2019-05-21T07:36:02.617Z,22.37
2019-05-21T07:39:11.535Z,23.10
2019-05-21T07:41:41.371Z,22.67
2019-05-21T07:44:11.306Z,24.10
2019-05-21T07:47:00.016Z,21.47
2019-05-21T07:49:49.004Z,22.33
2019-05-21T07:52:18.628Z,22.30
2019-05-21T07:55:27.574Z,24.10
2019-05-21T07:57:57.264Z,22.73
2019-05-21T08:00:27.238Z,23.50
2019-05-21T08:02:56.927Z,21.67
2019-05-21T08:05:46.920Z,21.77
2019-05-21T08:08:16.854Z,22.60
2019-05-21T08:10:46.466Z,23.67
2019-05-21T08:13:16.221Z,23.40
2019-05-21T08:15:46.459Z,23.57
2019-05-21T08:18:16.116Z,23.97
2019-05-21T08:20:45.817Z,24.67
2019-05-21T08:23:15.770Z,25.40
2019-05-21T08:25:45.378Z,26.87
2019-05-21T08:28:14.999Z,24.80
2019-05-21T08:30:46.650Z,24.07
2019-05-21T08:33:35.438Z,22.63
2019-05-21T08:36:05.810Z,23.07
2019-05-21T08:38:35.827Z,24.17
2019-05-21T08:43:47.321Z,24.33
2019-05-21T08:46:56.655Z,24.93
2019-05-21T08:49:26.366Z,25.27
2019-05-21T08:51:56.229Z,26.63
2019-05-21T08:54:45.038Z,27.00
2019-05-21T08:57:14.844Z,27.03
2019-05-21T08:59:44.737Z,26.10
2019-05-21T09:02:14.645Z,23.33
2019-05-21T09:04:58.426Z,23.30
2019-05-21T09:07:16.012Z,25.13
2019-05-21T09:09:50.508Z,24.57
2019-05-21T09:12:17.092Z,24.60
2019-05-21T09:15:06.558Z,24.30
2019-05-21T09:17:36.204Z,23.17
2019-05-21T09:20:17.064Z,22.90
2019-05-21T09:22:46.775Z,22.87
2019-05-21T09:25:16.405Z,24.43
2019-05-21T09:27:46.666Z,23.27
2019-05-21T09:30:37.132Z,24.90
2019-05-21T09:33:07.373Z,23.37
2019-05-21T09:35:37.474Z,24.03
2019-05-21T09:38:26.323Z,24.13
2019-05-21T09:40:56.902Z,24.40
2019-05-21T09:43:45.634Z,24.67
2019-05-21T09:46:15.529Z,23.90
2019-05-21T09:48:45.191Z,24.37
2019-05-21T09:51:35.250Z,23.03
2019-05-21T09:54:05.448Z,23.20
2019-05-21T09:56:55.378Z,23.87
2019-05-21T10:06:06.849Z,24.63
2019-05-21T10:11:54.635Z,24.23
2019-05-21T10:20:33.371Z,21.70
2019-05-21T10:23:03.250Z,24.30
2019-05-21T10:25:33.801Z,23.33
2019-05-21T10:28:03.835Z,23.43
2019-05-21T10:30:33.850Z,22.10
2019-05-21T10:33:05.599Z,23.03
2019-05-21T10:35:35.344Z,23.17
2019-05-21T10:38:05.438Z,23.43
2019-05-21T10:40:36.373Z,24.10
2019-05-21T10:43:06.215Z,22.80
2019-05-21T10:45:36.259Z,23.40
2019-05-21T10:48:06.188Z,23.47
2019-05-21T10:50:36.928Z,24.40
2019-05-21T10:53:07.002Z,23.73
2019-05-21T10:55:36.658Z,22.93
2019-05-21T10:58:06.351Z,24.00
2019-05-21T11:00:36.494Z,23.50
2019-05-21T11:03:13.784Z,23.00
2019-05-21T11:05:46.244Z,22.87
2019-05-21T11:08:24.953Z,21.93
2019-05-21T11:10:48.343Z,21.43
2019-05-21T11:13:18.021Z,20.60
2019-05-21T11:15:47.686Z,21.67
2019-05-21T11:18:17.644Z,21.93
2019-05-21T11:20:48.424Z,21.60
2019-05-21T11:23:18.946Z,21.43
2019-05-21T11:25:48.981Z,21.17
2019-05-21T11:28:18.670Z,22.30
2019-05-21T11:30:50.086Z,21.60
2019-05-21T11:33:20.654Z,20.97
2019-05-21T11:35:51.789Z,20.43
2019-05-21T11:38:21.454Z,20.30
2019-05-21T11:40:52.534Z,20.40
2019-05-21T11:43:22.116Z,21.20
2019-05-21T11:45:51.855Z,21.03
2019-05-21T11:48:22.012Z,20.00
2019-05-21T11:50:53.945Z,19.07
2019-05-21T11:53:23.586Z,20.37
2019-05-21T11:55:53.636Z,19.90
2019-05-21T11:58:24.447Z,19.37
2019-05-21T12:00:54.653Z,20.50
2019-05-21T12:03:26.073Z,21.00
2019-05-21T12:05:55.859Z,20.07
2019-05-21T12:08:25.662Z,20.30
2019-05-21T12:10:55.788Z,17.40
2019-05-21T12:13:25.502Z,19.87
2019-05-21T12:15:55.333Z,19.63
2019-05-21T12:18:25.302Z,20.60
2019-05-21T12:20:55.475Z,21.10
2019-05-21T12:23:25.182Z,23.73
2019-05-21T12:25:55.292Z,22.20
2019-05-21T12:28:24.977Z,23.00
2019-05-21T12:30:54.707Z,24.10
2019-05-21T12:33:25.028Z,22.77
2019-05-21T12:35:54.740Z,23.77
2019-05-21T12:38:24.582Z,22.53
2019-05-21T12:40:55.714Z,21.43
2019-05-21T12:43:25.416Z,20.60
2019-05-21T12:45:55.194Z,21.10
2019-05-21T12:48:25.332Z,21.17
2019-05-21T12:50:55.032Z,20.03
2019-05-21T12:53:24.726Z,22.40
2019-05-21T12:55:54.837Z,20.27
2019-05-21T12:58:24.544Z,20.23
2019-05-21T13:00:54.184Z,20.77
2019-05-21T13:03:24.441Z,20.63
2019-05-21T13:05:54.231Z,21.67
2019-05-21T13:08:23.818Z,23.13
2019-05-21T13:14:01.813Z,20.73
2019-05-21T13:16:32.125Z,20.67
2019-05-21T13:21:53.121Z,21.40
2019-05-21T13:24:23.151Z,23.20
2019-05-21T13:29:55.365Z,21.80
2019-05-21T13:32:25.426Z,22.37
2019-05-21T13:34:55.106Z,21.80
2019-05-21T13:37:44.062Z,22.57
2019-05-21T13:40:14.368Z,21.97
2019-05-21T13:42:44.671Z,21.87
2019-05-21T13:45:33.475Z,21.47
2019-05-21T13:48:03.585Z,22.90
2019-05-21T13:50:33.843Z,22.20
2019-05-21T13:53:05.940Z,21.77
2019-05-21T13:55:35.993Z,19.80
2019-05-21T13:58:05.664Z,21.80
2019-05-21T14:00:54.517Z,21.37
2019-05-21T14:03:44.465Z,22.00
2019-05-21T14:06:14.373Z,21.17
2019-05-21T14:08:44.447Z,20.83
2019-05-21T14:11:14.331Z,22.77
2019-05-21T14:14:03.127Z,21.20
2019-05-21T14:17:06.094Z,19.63
2019-05-21T14:19:23.455Z,21.60
2019-05-21T14:22:07.272Z,21.90
2019-05-21T14:24:24.406Z,21.13
2019-05-21T14:27:13.220Z,20.73
2019-05-21T14:29:42.918Z,20.53
2019-05-21T14:32:12.668Z,19.70
2019-05-21T14:35:02.463Z,21.63
2019-05-21T14:37:32.190Z,19.27
2019-05-21T14:40:02.299Z,21.50
2019-05-21T14:42:32.032Z,20.37
2019-05-21T14:45:02.317Z,20.97
2019-05-21T14:47:32.360Z,21.57
2019-05-21T14:50:02.142Z,21.00
2019-05-21T14:52:31.832Z,19.60
2019-05-21T14:55:20.693Z,19.47
2019-05-21T14:57:52.920Z,20.33
2019-05-21T15:01:00.824Z,20.17
2019-05-21T15:03:51.110Z,20.73
2019-05-21T15:06:21.269Z,19.03
2019-05-21T15:08:53.220Z,20.90
2019-05-21T15:11:22.873Z,19.60
2019-05-21T15:14:12.880Z,20.43
2019-05-21T15:16:42.734Z,20.30
2019-05-21T15:19:31.841Z,19.10
2019-05-21T15:22:01.972Z,18.10
2019-05-21T15:24:33.546Z,16.80
2019-05-21T15:27:03.783Z,18.30
2019-05-21T15:29:33.475Z,17.23
2019-05-21T15:32:03.124Z,15.57
2019-05-21T15:37:14.854Z,13.53
2019-05-21T15:39:44.611Z,13.80
2019-05-21T15:42:14.419Z,13.33
2019-05-21T15:45:03.117Z,13.07
2019-05-21T15:47:32.964Z,13.53
2019-05-21T15:50:21.841Z,13.63
2019-05-21T15:52:51.540Z,13.37
2019-05-21T15:55:21.367Z,13.23
2019-05-21T15:57:51.642Z,11.97
2019-05-21T16:00:54.679Z,11.47
2019-05-21T16:06:11.698Z,12.73
2019-05-21T16:08:41.492Z,12.03
2019-05-21T16:11:27.312Z,11.57
2019-05-21T16:14:01.802Z,11.10
2019-05-21T16:19:49.810Z,10.40
2019-05-21T16:22:38.533Z,11.17
2019-05-21T16:25:27.210Z,10.53
2019-05-21T16:33:27.909Z,9.93
2019-05-21T16:36:36.886Z,10.43
2019-05-21T16:39:26.647Z,9.90
2019-05-21T16:42:10.588Z,8.97
2019-05-21T16:44:39.529Z,9.63
2019-05-21T16:56:07.505Z,10.23
2019-05-21T16:58:37.322Z,9.47
2019-05-21T17:01:08.022Z,9.33
2019-05-21T17:04:00.029Z,9.53
2019-05-21T17:06:28.165Z,9.00
2019-05-21T17:09:11.980Z,9.23
2019-05-21T17:14:11.155Z,9.20
2019-05-21T17:17:00.112Z,9.07
2019-05-21T17:19:49.073Z,8.67
2019-05-21T17:22:51.677Z,9.03
2019-05-21T17:25:11.796Z,8.77
2019-05-21T17:28:00.895Z,8.27
2019-05-21T17:30:32.083Z,8.47
2019-05-21T17:33:15.908Z,9.27
2019-05-21T17:35:57.335Z,8.90
2019-05-21T17:38:27.563Z,8.80
2019-05-21T17:41:30.292Z,9.37
2019-05-21T17:44:07.417Z,7.63
2019-05-21T17:50:26.884Z,8.93
2019-05-21T17:53:16.070Z,8.80
2019-05-21T17:58:37.961Z,9.37
2019-05-21T18:01:51.161Z,9.03
2019-05-21T18:04:20.245Z,8.80
2019-05-21T18:06:51.823Z,9.40
2019-05-21T18:09:41.393Z,8.53
2019-05-21T18:12:32.307Z,9.00
2019-05-21T18:15:22.535Z,8.30
2019-05-21T18:17:53.365Z,8.73
2019-05-21T18:20:24.457Z,8.23
2019-05-21T18:23:13.815Z,9.23
2019-05-21T18:25:44.223Z,7.80
2019-05-21T18:31:06.777Z,8.17
2019-05-21T18:33:48.350Z,7.33
2019-05-21T23:14:43.631Z,16.50
2019-05-21T23:23:25.825Z,16.87
2019-05-21T23:47:31.783Z,17.57
2019-05-21T23:50:20.796Z,17.60
2019-05-21T23:53:10.000Z,17.57
